createdAt,value
2018-05-09T00:00:20.888Z,993.32
2018-05-09T00:01:20.868Z,993.28
2018-05-09T00:03:13.727Z,993.27
2018-05-09T00:04:13.698Z,993.16
2018-05-09T00:06:06.559Z,993.20
2018-05-09T00:07:06.531Z,993.22
2018-05-09T00:08:59.386Z,993.19
2018-05-09T00:09:59.364Z,993.14
2018-05-09T00:11:52.227Z,993.10
2018-05-09T00:12:52.196Z,993.12
2018-05-09T00:14:45.049Z,993.12
2018-05-09T00:15:45.029Z,993.11
2018-05-09T00:17:37.889Z,993.10
2018-05-09T00:18:37.860Z,993.09
2018-05-09T00:20:30.710Z,993.08
2018-05-09T00:21:30.689Z,993.07
2018-05-09T00:23:23.548Z,993.02
2018-05-09T00:24:23.518Z,992.99
2018-05-09T00:26:16.384Z,993.06
2018-05-09T00:27:16.350Z,993.02
2018-05-09T00:29:09.214Z,993.13
2018-05-09T00:30:09.193Z,993.02
2018-05-09T00:32:02.051Z,993.17
2018-05-09T00:33:02.025Z,993.13
2018-05-09T00:34:54.874Z,993.18
2018-05-09T00:35:54.853Z,993.17
2018-05-09T00:37:47.711Z,993.19
2018-05-09T00:38:47.687Z,993.15
2018-05-09T00:40:40.534Z,993.03
2018-05-09T00:41:40.543Z,992.99
2018-05-09T00:43:33.376Z,993.04
2018-05-09T00:44:33.353Z,993.02
2018-05-09T00:46:26.202Z,993.02
2018-05-09T00:47:26.177Z,993.02
2018-05-09T00:49:19.024Z,993.08
2018-05-09T00:50:19.007Z,993.04
2018-05-09T00:52:11.944Z,993.06
2018-05-09T00:53:11.838Z,993.04
2018-05-09T00:55:04.685Z,993.06
2018-05-09T00:56:04.667Z,993.09
2018-05-09T00:57:57.524Z,993.03
2018-05-09T00:58:57.496Z,993.04
2018-05-09T01:00:50.348Z,993.06
2018-05-09T01:01:50.328Z,993.07
2018-05-09T01:03:43.194Z,993.07
2018-05-09T01:04:43.167Z,992.99
2018-05-09T01:06:36.025Z,992.99
2018-05-09T01:07:35.997Z,992.97
2018-05-09T01:09:28.849Z,992.97
2018-05-09T01:10:28.829Z,993.00
2018-05-09T01:12:21.684Z,993.01
2018-05-09T01:13:21.665Z,993.00
2018-05-09T01:15:14.512Z,992.97
2018-05-09T01:16:14.493Z,992.98
2018-05-09T01:18:07.352Z,993.03
2018-05-09T01:19:07.324Z,993.07
2018-05-09T01:21:00.179Z,993.02
2018-05-09T01:22:00.155Z,993.03
2018-05-09T01:23:53.017Z,992.98
2018-05-09T01:24:52.989Z,992.96
2018-05-09T01:26:45.845Z,992.99
2018-05-09T01:27:45.818Z,992.97
2018-05-09T01:29:38.666Z,992.95
2018-05-09T01:30:38.648Z,992.98
2018-05-09T01:32:31.505Z,992.98
2018-05-09T01:33:31.475Z,992.96
2018-05-09T01:35:24.342Z,992.91
2018-05-09T01:36:24.322Z,992.90
2018-05-09T01:38:17.172Z,992.91
2018-05-09T01:39:17.148Z,992.95
2018-05-09T01:41:10.000Z,992.90
2018-05-09T01:42:09.979Z,992.93
2018-05-09T01:44:02.837Z,992.95
2018-05-09T01:45:02.810Z,992.93
2018-05-09T01:46:55.665Z,992.95
2018-05-09T01:47:55.638Z,992.89
2018-05-09T01:49:48.488Z,992.92
2018-05-09T01:50:48.465Z,992.93
2018-05-09T01:52:41.824Z,992.94
2018-05-09T01:53:41.797Z,992.95
2018-05-09T01:55:34.649Z,992.96
2018-05-09T01:56:34.629Z,992.91
2018-05-09T01:58:27.484Z,992.94
2018-05-09T01:59:27.457Z,992.94
2018-05-09T02:01:20.322Z,992.94
2018-05-09T02:02:20.290Z,992.94
2018-05-09T02:04:13.148Z,992.96
2018-05-09T02:05:13.122Z,992.97
2018-05-09T02:07:05.978Z,993.00
2018-05-09T02:08:05.950Z,992.98
2018-05-09T02:09:58.813Z,992.94
2018-05-09T02:10:58.775Z,992.93
2018-05-09T02:12:51.633Z,993.00
2018-05-09T02:13:51.605Z,993.05
2018-05-09T02:15:44.459Z,993.02
2018-05-09T02:16:44.436Z,993.00
2018-05-09T02:18:37.290Z,992.97
2018-05-09T02:19:37.263Z,992.99
2018-05-09T02:21:30.121Z,993.04
2018-05-09T02:22:30.092Z,993.04
2018-05-09T02:24:22.938Z,993.06
2018-05-09T02:25:22.918Z,993.08
2018-05-09T02:27:15.777Z,993.06
2018-05-09T02:28:15.746Z,993.09
2018-05-09T02:30:08.598Z,993.16
2018-05-09T02:31:08.654Z,993.16
2018-05-09T02:33:01.430Z,993.20
2018-05-09T02:34:01.404Z,993.21
2018-05-09T02:35:54.253Z,993.17
2018-05-09T02:36:54.233Z,993.18
2018-05-09T02:38:47.086Z,993.20
2018-05-09T02:39:47.061Z,993.22
2018-05-09T02:41:39.917Z,993.23
2018-05-09T02:42:39.889Z,993.19
2018-05-09T02:44:32.742Z,993.22
2018-05-09T02:45:32.726Z,993.16
2018-05-09T02:47:25.576Z,993.22
2018-05-09T02:48:25.550Z,993.21
2018-05-09T02:50:18.402Z,993.20
2018-05-09T02:51:18.378Z,993.24
2018-05-09T02:53:11.237Z,993.27
2018-05-09T02:54:11.210Z,993.17
2018-05-09T02:56:04.060Z,993.25
2018-05-09T02:57:04.043Z,993.25
2018-05-09T02:58:56.893Z,993.20
2018-05-09T02:59:56.868Z,993.18
2018-05-09T03:01:49.727Z,993.21
2018-05-09T03:02:49.697Z,993.22
2018-05-09T03:04:42.554Z,993.22
2018-05-09T03:05:42.529Z,993.18
2018-05-09T03:07:35.382Z,993.15
2018-05-09T03:08:35.354Z,993.14
2018-05-09T03:10:28.203Z,993.10
2018-05-09T03:11:28.186Z,993.08
2018-05-09T03:13:21.039Z,993.07
2018-05-09T03:14:21.011Z,993.10
2018-05-09T03:16:13.860Z,993.11
2018-05-09T03:17:13.839Z,993.08
2018-05-09T03:19:06.699Z,993.03
2018-05-09T03:20:06.671Z,993.04
2018-05-09T03:21:59.529Z,993.11
2018-05-09T03:22:59.499Z,993.10
2018-05-09T03:24:52.351Z,993.10
2018-05-09T03:25:52.329Z,993.07
2018-05-09T03:27:45.184Z,993.05
2018-05-09T03:28:45.157Z,993.05
2018-05-09T03:30:38.005Z,993.10
2018-05-09T03:31:37.986Z,993.10
2018-05-09T03:33:30.840Z,993.14
2018-05-09T03:34:30.811Z,993.11
2018-05-09T03:36:23.663Z,993.15
2018-05-09T03:37:23.649Z,993.19
2018-05-09T03:39:16.500Z,993.17
2018-05-09T03:40:16.471Z,993.18
2018-05-09T03:42:09.329Z,993.26
2018-05-09T03:43:09.300Z,993.19
2018-05-09T03:45:02.228Z,993.23
2018-05-09T03:46:02.131Z,993.23
2018-05-09T03:47:54.986Z,993.27
2018-05-09T03:48:54.959Z,993.23
2018-05-09T03:50:47.808Z,993.20
2018-05-09T03:51:47.788Z,993.26
2018-05-09T03:53:40.647Z,993.25
2018-05-09T03:54:40.618Z,993.19
2018-05-09T03:56:33.472Z,993.23
2018-05-09T03:57:33.450Z,993.21
2018-05-09T03:59:26.309Z,993.23
2018-05-09T04:00:26.279Z,993.24
2018-05-09T04:02:19.133Z,993.25
2018-05-09T04:03:19.109Z,993.22
2018-05-09T04:05:11.956Z,993.27
2018-05-09T04:06:11.935Z,993.26
2018-05-09T04:08:04.869Z,993.27
2018-05-09T04:09:04.766Z,993.26
2018-05-09T04:10:57.617Z,993.32
2018-05-09T04:11:57.596Z,993.31
2018-05-09T04:13:50.452Z,993.34
2018-05-09T04:14:50.454Z,993.30
2018-05-09T04:16:43.275Z,993.36
2018-05-09T04:17:43.256Z,993.33
2018-05-09T04:19:36.115Z,993.37
2018-05-09T04:20:36.094Z,993.36
2018-05-09T04:22:28.934Z,993.43
2018-05-09T04:23:28.914Z,993.41
2018-05-09T04:25:21.771Z,993.45
2018-05-09T04:26:21.741Z,993.39
2018-05-09T04:28:14.603Z,993.43
2018-05-09T04:29:14.577Z,993.41
2018-05-09T04:31:07.428Z,993.40
2018-05-09T04:32:07.407Z,993.43
2018-05-09T04:34:00.268Z,993.47
2018-05-09T04:35:00.241Z,993.49
2018-05-09T04:36:53.092Z,993.52
2018-05-09T04:37:53.072Z,993.49
2018-05-09T04:39:45.932Z,993.49
2018-05-09T04:40:45.905Z,993.50
2018-05-09T04:42:38.759Z,993.53
2018-05-09T04:43:38.740Z,993.56
2018-05-09T04:45:31.660Z,993.64
2018-05-09T04:46:31.578Z,993.67
2018-05-09T04:48:24.456Z,993.70
2018-05-09T04:49:24.425Z,993.70
2018-05-09T04:51:17.267Z,993.69
2018-05-09T04:52:17.256Z,993.70
2018-05-09T04:54:10.119Z,993.64
2018-05-09T04:55:10.093Z,993.71
2018-05-09T04:57:02.952Z,993.68
2018-05-09T04:58:02.934Z,993.60
2018-05-09T04:59:55.800Z,993.62
2018-05-09T05:00:55.775Z,993.61
2018-05-09T05:02:48.635Z,993.66
2018-05-09T05:03:48.618Z,993.67
2018-05-09T05:05:41.489Z,993.70
2018-05-09T05:06:41.468Z,993.72
2018-05-09T05:08:34.343Z,993.71
2018-05-09T05:09:34.320Z,993.68
2018-05-09T05:11:27.181Z,993.63
2018-05-09T05:12:27.167Z,993.62
2018-05-09T05:14:20.035Z,993.64
2018-05-09T05:15:20.011Z,993.68
2018-05-09T05:17:12.875Z,993.68
2018-05-09T05:18:12.867Z,993.72
2018-05-09T05:20:05.735Z,993.70
2018-05-09T05:21:05.711Z,993.64
2018-05-09T05:22:58.581Z,993.71
2018-05-09T05:23:58.557Z,993.65
2018-05-09T05:25:51.423Z,993.61
2018-05-09T05:26:51.411Z,993.70
2018-05-09T05:28:44.282Z,993.62
2018-05-09T05:29:44.262Z,993.65
2018-05-09T05:31:37.128Z,993.66
2018-05-09T05:32:37.115Z,993.62
2018-05-09T05:34:29.995Z,993.67
2018-05-09T05:35:29.971Z,993.67
2018-05-09T05:37:22.847Z,993.72
2018-05-09T05:38:22.830Z,993.71
2018-05-09T05:40:15.708Z,993.80
2018-05-09T05:41:15.685Z,993.78
2018-05-09T05:43:08.727Z,993.85
2018-05-09T05:44:08.707Z,993.86
2018-05-09T05:46:01.577Z,993.87
2018-05-09T05:47:01.569Z,993.85
2018-05-09T05:48:54.446Z,993.88
2018-05-09T05:49:54.473Z,993.89
2018-05-09T05:51:47.295Z,993.90
2018-05-09T05:52:47.284Z,993.85
2018-05-09T05:54:40.164Z,993.87
2018-05-09T05:55:40.143Z,993.88
2018-05-09T05:57:33.026Z,993.86
2018-05-09T05:58:33.017Z,993.84
2018-05-09T06:00:25.896Z,993.84
2018-05-09T06:01:25.877Z,993.86
2018-05-09T06:03:18.756Z,993.88
2018-05-09T06:04:18.739Z,993.89
2018-05-09T06:06:11.616Z,993.88
2018-05-09T06:07:11.604Z,993.96
2018-05-09T06:09:04.490Z,993.98
2018-05-09T06:10:04.475Z,993.97
2018-05-09T06:11:57.348Z,993.96
2018-05-09T06:12:57.344Z,993.97
2018-05-09T06:14:50.232Z,993.98
2018-05-09T06:15:50.207Z,994.01
2018-05-09T06:17:43.082Z,993.95
2018-05-09T06:18:43.069Z,993.96
2018-05-09T06:20:35.949Z,993.94
2018-05-09T06:21:35.932Z,993.94
2018-05-09T06:23:28.813Z,994.00
2018-05-09T06:24:28.796Z,993.97
2018-05-09T06:26:21.673Z,994.01
2018-05-09T06:27:21.661Z,994.01
2018-05-09T06:29:14.541Z,994.00
2018-05-09T06:30:14.526Z,994.02
2018-05-09T06:32:07.395Z,993.99
2018-05-09T06:33:07.384Z,994.01
2018-05-09T06:35:00.273Z,994.01
2018-05-09T06:36:00.251Z,994.02
2018-05-09T06:37:53.118Z,994.03
2018-05-09T06:38:53.109Z,994.03
2018-05-09T06:40:45.986Z,994.05
2018-05-09T06:41:46.057Z,994.07
2018-05-09T06:43:38.908Z,994.13
2018-05-09T06:44:38.829Z,994.15
2018-05-09T06:46:31.698Z,994.15
2018-05-09T06:47:31.688Z,994.17
2018-05-09T06:49:24.565Z,994.11
2018-05-09T06:50:24.547Z,994.12
2018-05-09T06:52:17.414Z,994.09
2018-05-09T06:53:17.404Z,994.10
2018-05-09T06:55:10.277Z,994.12
2018-05-09T06:56:10.257Z,994.14
2018-05-09T06:58:03.130Z,994.16
2018-05-09T06:59:03.197Z,994.22
2018-05-09T07:00:56.059Z,994.24
2018-05-09T07:01:55.971Z,994.31
2018-05-09T07:03:48.847Z,994.32
2018-05-09T07:04:48.830Z,994.37
2018-05-09T07:06:41.878Z,994.36
2018-05-09T07:07:41.688Z,994.36
2018-05-09T07:09:34.570Z,994.36
2018-05-09T07:10:34.545Z,994.32
2018-05-09T07:12:27.473Z,994.36
2018-05-09T07:13:27.402Z,994.33
2018-05-09T07:15:20.288Z,994.37
2018-05-09T07:16:20.265Z,994.41
2018-05-09T07:18:13.140Z,994.46
2018-05-09T07:19:13.129Z,994.49
2018-05-09T07:21:06.012Z,994.53
2018-05-09T07:22:05.994Z,994.53
2018-05-09T07:23:58.873Z,994.53
2018-05-09T07:24:58.857Z,994.53
2018-05-09T07:26:51.735Z,994.49
2018-05-09T07:27:51.726Z,994.55
2018-05-09T07:29:44.611Z,994.55
2018-05-09T07:30:44.599Z,994.47
2018-05-09T07:32:37.475Z,994.44
2018-05-09T07:33:37.463Z,994.51
2018-05-09T07:35:30.439Z,994.44
2018-05-09T07:36:30.341Z,994.48
2018-05-09T07:38:23.220Z,994.54
2018-05-09T07:39:23.208Z,994.52
2018-05-09T07:41:16.086Z,994.53
2018-05-09T07:42:16.114Z,994.55
2018-05-09T07:44:08.962Z,994.48
2018-05-09T07:45:08.948Z,994.48
2018-05-09T07:47:01.825Z,994.54
2018-05-09T07:48:01.820Z,994.49
2018-05-09T07:49:54.715Z,994.50
2018-05-09T07:50:54.693Z,994.45
2018-05-09T07:52:47.568Z,994.45
2018-05-09T07:53:47.556Z,994.46
2018-05-09T07:55:40.499Z,994.43
2018-05-09T07:56:40.424Z,994.44
2018-05-09T07:58:33.386Z,994.46
2018-05-09T07:59:33.294Z,994.46
2018-05-09T08:01:26.180Z,994.56
2018-05-09T08:02:26.168Z,994.52
2018-05-09T08:04:19.072Z,994.58
2018-05-09T08:05:19.056Z,994.57
2018-05-09T08:07:11.933Z,994.56
2018-05-09T08:08:11.926Z,994.63
2018-05-09T08:10:04.810Z,994.49
2018-05-09T08:11:04.797Z,994.46
2018-05-09T08:12:57.825Z,994.42
2018-05-09T08:13:57.668Z,994.48
2018-05-09T08:15:50.556Z,994.51
2018-05-09T08:16:50.540Z,994.57
2018-05-09T08:18:44.431Z,994.60
2018-05-09T08:19:44.407Z,994.61
2018-05-09T08:21:37.287Z,994.66
2018-05-09T08:22:37.279Z,994.67
2018-05-09T08:24:30.164Z,994.68
2018-05-09T08:25:30.150Z,994.66
2018-05-09T08:27:23.028Z,994.68
2018-05-09T08:28:23.022Z,994.72
2018-05-09T08:30:15.966Z,994.66
2018-05-09T08:31:15.896Z,994.73
2018-05-09T08:33:08.776Z,994.73
2018-05-09T08:34:08.769Z,994.82
2018-05-09T08:36:01.664Z,995.10
2018-05-09T08:37:01.649Z,995.31
2018-05-09T08:38:54.538Z,996.52
2018-05-09T08:39:54.526Z,996.26
2018-05-09T08:41:47.416Z,996.61
2018-05-09T08:42:47.407Z,996.69
2018-05-09T08:44:40.295Z,997.50
2018-05-09T08:45:40.283Z,997.33
2018-05-09T08:47:33.169Z,997.77
2018-05-09T08:48:33.166Z,997.83
2018-05-09T08:50:26.054Z,998.07
2018-05-09T08:51:26.041Z,998.34
2018-05-09T08:53:18.924Z,998.81
2018-05-09T08:54:18.919Z,999.20
2018-05-09T08:56:11.819Z,999.49
2018-05-09T08:57:11.804Z,1000.02
2018-05-09T08:59:04.695Z,999.80
2018-05-09T09:00:04.691Z,999.63
2018-05-09T09:01:57.567Z,1001.00
2018-05-09T09:02:57.565Z,1000.48
2018-05-09T09:04:50.453Z,1000.34
2018-05-09T09:05:50.447Z,1000.54
2018-05-09T09:07:43.329Z,1000.01
2018-05-09T09:08:43.325Z,999.86
2018-05-09T09:10:36.217Z,1000.53
2018-05-09T09:11:36.205Z,1000.35
2018-05-09T09:13:29.090Z,999.50
2018-05-09T09:14:29.088Z,999.74
2018-05-09T09:16:21.977Z,1000.73
2018-05-09T09:17:21.964Z,1000.43
2018-05-09T09:19:14.859Z,1000.24
2018-05-09T09:20:14.847Z,998.88
2018-05-09T09:22:07.734Z,997.23
2018-05-09T09:23:07.730Z,999.98
2018-05-09T09:25:00.620Z,1000.52
2018-05-09T09:26:00.609Z,1000.88
2018-05-09T09:27:53.490Z,1000.25
2018-05-09T09:28:53.484Z,999.66
2018-05-09T09:30:46.375Z,999.71
2018-05-09T09:31:46.364Z,1000.23
2018-05-09T09:33:39.252Z,999.89
2018-05-09T09:34:39.244Z,1000.20
2018-05-09T09:36:32.122Z,997.28
2018-05-09T09:37:32.118Z,999.31
2018-05-09T09:39:25.012Z,998.68
2018-05-09T09:40:25.003Z,999.49
2018-05-09T09:42:17.887Z,999.40
2018-05-09T09:43:17.881Z,999.96
2018-05-09T09:45:10.773Z,998.69
2018-05-09T09:46:10.763Z,998.36
2018-05-09T09:48:03.643Z,998.52
2018-05-09T09:49:03.641Z,998.47
2018-05-09T09:50:56.534Z,998.09
2018-05-09T09:51:56.521Z,997.53
2018-05-09T09:53:49.420Z,997.44
2018-05-09T09:54:49.409Z,997.46
2018-05-09T09:56:42.296Z,997.09
2018-05-09T09:57:42.293Z,997.08
2018-05-09T09:59:35.190Z,996.29
2018-05-09T10:00:35.179Z,996.20
2018-05-09T10:02:28.063Z,996.09
2018-05-09T10:03:28.060Z,995.98
2018-05-09T10:05:20.960Z,995.65
2018-05-09T10:06:20.944Z,995.61
2018-05-09T10:08:13.829Z,995.43
2018-05-09T10:09:13.828Z,995.34
2018-05-09T10:11:06.732Z,995.28
2018-05-09T10:12:06.716Z,995.20
2018-05-09T10:13:59.612Z,994.70
2018-05-09T10:14:59.630Z,994.85
2018-05-09T10:16:52.565Z,994.81
2018-05-09T10:17:52.484Z,994.82
2018-05-09T10:19:45.386Z,994.70
2018-05-09T10:20:45.376Z,994.76
2018-05-09T10:22:38.262Z,994.67
2018-05-09T10:23:38.257Z,994.66
2018-05-09T10:25:31.152Z,994.73
2018-05-09T10:26:31.140Z,994.75
2018-05-09T10:28:24.035Z,994.73
2018-05-09T10:29:24.030Z,994.72
2018-05-09T10:31:16.930Z,994.74
2018-05-09T10:32:16.921Z,994.77
2018-05-09T10:34:09.815Z,994.85
2018-05-09T10:35:09.805Z,994.80
2018-05-09T10:37:02.699Z,994.94
2018-05-09T10:38:02.703Z,994.85
2018-05-09T10:39:55.595Z,994.98
2018-05-09T10:40:55.581Z,995.02
2018-05-09T10:42:48.543Z,994.85
2018-05-09T10:43:48.985Z,993.69
2018-05-09T10:45:41.389Z,995.24
2018-05-09T10:46:41.379Z,995.42
2018-05-09T10:48:34.266Z,995.74
2018-05-09T10:49:34.266Z,995.64
2018-05-09T10:51:27.164Z,995.63
2018-05-09T10:52:27.155Z,995.95
2018-05-09T10:54:20.057Z,995.99
2018-05-09T10:55:20.041Z,996.01
2018-05-09T10:57:12.991Z,996.27
2018-05-09T10:58:12.927Z,996.36
2018-05-09T11:00:05.819Z,995.90
2018-05-09T11:01:05.810Z,995.63
2018-05-09T11:02:58.762Z,995.47
2018-05-09T11:03:59.336Z,995.46
2018-05-09T11:05:51.598Z,995.36
2018-05-09T11:06:51.589Z,994.62
2018-05-09T11:08:44.472Z,995.48
2018-05-09T11:09:44.475Z,995.53
2018-05-09T11:11:37.374Z,995.51
2018-05-09T11:12:37.365Z,995.36
2018-05-09T11:14:30.267Z,995.16
2018-05-09T11:15:30.248Z,994.28
2018-05-09T11:17:23.144Z,994.80
2018-05-09T11:18:23.145Z,994.76
2018-05-09T11:20:16.041Z,993.77
2018-05-09T11:21:16.028Z,994.70
2018-05-09T11:23:08.914Z,994.79
2018-05-09T11:24:08.914Z,994.96
2018-05-09T11:26:01.807Z,994.80
2018-05-09T11:27:01.801Z,994.87
2018-05-09T11:28:54.775Z,994.91
2018-05-09T11:29:54.678Z,995.01
2018-05-09T11:31:47.576Z,994.78
2018-05-09T11:32:47.565Z,993.53
2018-05-09T11:34:40.459Z,993.49
2018-05-09T11:35:40.448Z,993.63
2018-05-09T11:37:33.331Z,994.57
2018-05-09T11:38:33.326Z,994.64
2018-05-09T11:40:26.225Z,993.45
2018-05-09T11:41:26.212Z,993.46
2018-05-09T11:43:19.093Z,993.49
2018-05-09T11:44:19.093Z,993.51
2018-05-09T11:46:11.978Z,993.45
2018-05-09T11:47:11.964Z,993.38
2018-05-09T11:49:04.861Z,993.37
2018-05-09T11:50:04.837Z,993.48
2018-05-09T11:51:57.717Z,994.50
2018-05-09T11:52:57.710Z,994.56
2018-05-09T11:54:50.598Z,994.48
2018-05-09T11:55:50.581Z,994.65
2018-05-09T11:57:43.461Z,994.56
2018-05-09T11:58:43.451Z,994.58
2018-05-09T12:00:36.340Z,994.33
2018-05-09T12:01:36.326Z,994.21
2018-05-09T12:03:29.207Z,994.20
2018-05-09T12:04:29.204Z,994.10
2018-05-09T12:06:22.094Z,994.01
2018-05-09T12:07:22.074Z,993.98
2018-05-09T12:09:14.967Z,993.85
2018-05-09T12:10:15.033Z,993.26
2018-05-09T12:12:07.852Z,993.80
2018-05-09T12:13:07.849Z,993.45
2018-05-09T12:15:00.737Z,993.73
2018-05-09T12:16:00.726Z,993.65
2018-05-09T12:17:53.610Z,993.81
2018-05-09T12:18:53.607Z,993.71
2018-05-09T12:20:46.493Z,993.34
2018-05-09T12:21:46.480Z,993.15
2018-05-09T12:23:39.355Z,993.86
2018-05-09T12:24:39.383Z,993.86
2018-05-09T12:26:32.246Z,993.60
2018-05-09T12:27:32.232Z,993.90
2018-05-09T12:29:25.127Z,993.09
2018-05-09T12:30:25.114Z,993.05
2018-05-09T12:32:17.993Z,993.00
2018-05-09T12:33:17.989Z,992.98
2018-05-09T12:35:10.875Z,992.94
2018-05-09T12:36:10.863Z,993.01
2018-05-09T12:38:03.737Z,993.45
2018-05-09T12:39:03.730Z,993.41
2018-05-09T12:40:56.614Z,993.34
2018-05-09T12:41:56.602Z,993.40
2018-05-09T12:43:49.480Z,993.37
2018-05-09T12:44:49.473Z,993.41
2018-05-09T12:46:42.362Z,993.35
2018-05-09T12:47:42.349Z,993.31
2018-05-09T12:49:35.240Z,993.27
2018-05-09T12:50:35.226Z,993.24
2018-05-09T12:52:28.107Z,993.20
2018-05-09T12:53:28.107Z,993.22
2018-05-09T12:55:20.996Z,993.23
2018-05-09T12:56:20.983Z,993.22
2018-05-09T12:58:13.869Z,993.20
2018-05-09T12:59:13.861Z,993.14
2018-05-09T13:01:06.747Z,993.10
2018-05-09T13:02:06.735Z,992.68
2018-05-09T13:03:59.621Z,992.63
2018-05-09T13:04:59.610Z,992.60
2018-05-09T13:06:52.500Z,992.63
2018-05-09T13:07:52.505Z,992.97
2018-05-09T13:09:45.368Z,992.94
2018-05-09T13:10:45.355Z,992.91
2018-05-09T13:12:38.237Z,992.52
2018-05-09T13:13:38.232Z,992.60
2018-05-09T13:15:31.112Z,992.86
2018-05-09T13:16:31.097Z,992.80
2018-05-09T13:18:23.974Z,992.82
2018-05-09T13:19:23.965Z,992.79
2018-05-09T13:21:16.853Z,992.76
2018-05-09T13:22:16.843Z,992.72
2018-05-09T13:24:09.719Z,992.65
2018-05-09T13:25:09.713Z,992.65
2018-05-09T13:27:02.605Z,992.60
2018-05-09T13:28:02.584Z,992.56
2018-05-09T13:29:55.471Z,992.54
2018-05-09T13:30:55.456Z,992.57
2018-05-09T13:32:48.340Z,992.50
2018-05-09T13:33:48.329Z,992.49
2018-05-09T13:35:41.214Z,992.47
2018-05-09T13:36:41.198Z,992.43
2018-05-09T13:38:34.076Z,992.41
2018-05-09T13:39:34.069Z,992.40
2018-05-09T13:41:26.961Z,992.40
2018-05-09T13:42:26.938Z,992.38
2018-05-09T13:44:19.820Z,992.19
2018-05-09T13:45:19.817Z,992.19
2018-05-09T13:47:12.700Z,992.15
2018-05-09T13:48:12.686Z,992.31
2018-05-09T13:50:05.566Z,992.33
2018-05-09T13:51:05.553Z,992.26
2018-05-09T13:52:58.428Z,992.23
2018-05-09T13:53:58.449Z,992.24
2018-05-09T13:55:51.305Z,992.21
2018-05-09T13:56:51.289Z,992.20
2018-05-09T13:58:44.174Z,992.15
2018-05-09T13:59:44.160Z,992.17
2018-05-09T14:01:37.045Z,992.14
2018-05-09T14:02:37.029Z,992.16
2018-05-09T14:04:29.912Z,992.08
2018-05-09T14:05:29.901Z,992.12
2018-05-09T14:07:22.787Z,992.05
2018-05-09T14:08:22.797Z,992.07
2018-05-09T14:10:15.653Z,992.04
2018-05-09T14:11:15.642Z,992.00
2018-05-09T14:13:08.519Z,992.03
2018-05-09T14:14:08.513Z,991.99
2018-05-09T14:16:01.409Z,991.93
2018-05-09T14:17:01.394Z,991.91
2018-05-09T14:18:54.272Z,991.90
2018-05-09T14:19:54.263Z,991.95
2018-05-09T14:21:47.146Z,991.92
2018-05-09T14:22:47.136Z,991.92
2018-05-09T14:24:40.012Z,991.91
2018-05-09T14:25:40.004Z,991.96
2018-05-09T14:27:32.884Z,991.93
2018-05-09T14:28:32.870Z,991.91
2018-05-09T14:30:25.823Z,991.85
2018-05-09T14:31:25.735Z,991.85
2018-05-09T14:33:18.600Z,991.80
2018-05-09T14:34:18.601Z,991.83
2018-05-09T14:36:11.484Z,991.76
2018-05-09T14:37:11.471Z,991.78
2018-05-09T14:39:04.344Z,991.71
2018-05-09T14:40:04.345Z,991.69
2018-05-09T14:41:57.220Z,991.79
2018-05-09T14:42:57.203Z,991.71
2018-05-09T14:44:50.090Z,991.69
2018-05-09T14:45:50.067Z,991.66
2018-05-09T14:47:42.941Z,991.62
2018-05-09T14:48:42.929Z,991.65
2018-05-09T14:50:35.811Z,991.61
2018-05-09T14:51:35.793Z,991.59
2018-05-09T14:53:28.671Z,991.56
2018-05-09T14:54:28.668Z,991.55
2018-05-09T14:56:21.545Z,991.41
2018-05-09T14:57:21.529Z,991.43
2018-05-09T14:59:14.400Z,991.43
2018-05-09T15:00:14.423Z,991.42
2018-05-09T15:02:07.275Z,991.43
2018-05-09T15:03:07.283Z,991.56
2018-05-09T15:05:00.133Z,991.58
2018-05-09T15:06:00.115Z,991.54
2018-05-09T15:07:52.989Z,991.57
2018-05-09T15:08:52.987Z,991.50
2018-05-09T15:10:45.859Z,991.55
2018-05-09T15:11:45.840Z,991.49
2018-05-09T15:13:38.712Z,991.45
2018-05-09T15:14:38.700Z,991.43
2018-05-09T15:16:31.578Z,991.44
2018-05-09T15:17:31.566Z,991.49
2018-05-09T15:19:24.443Z,991.45
2018-05-09T15:20:24.426Z,991.41
2018-05-09T15:22:17.313Z,991.35
2018-05-09T15:23:17.283Z,991.35
2018-05-09T15:25:10.161Z,991.32
2018-05-09T15:26:10.144Z,991.33
2018-05-09T15:28:03.012Z,991.30
2018-05-09T15:29:03.002Z,991.29
2018-05-09T15:30:55.877Z,991.30
2018-05-09T15:31:55.858Z,991.29
2018-05-09T15:33:48.725Z,991.25
2018-05-09T15:34:48.715Z,991.20
2018-05-09T15:36:41.602Z,991.18
2018-05-09T15:37:41.584Z,991.22
2018-05-09T15:39:34.458Z,991.19
2018-05-09T15:40:34.441Z,991.24
2018-05-09T15:42:27.320Z,991.21
2018-05-09T15:43:27.297Z,991.31
2018-05-09T15:45:20.176Z,991.26
2018-05-09T15:46:20.169Z,991.22
2018-05-09T15:48:13.024Z,991.34
2018-05-09T15:49:13.011Z,991.38
2018-05-09T15:51:05.888Z,991.28
2018-05-09T15:52:05.882Z,991.31
2018-05-09T15:53:58.737Z,991.35
2018-05-09T15:54:58.727Z,991.31
2018-05-09T15:56:51.610Z,991.34
2018-05-09T15:57:51.581Z,991.26
2018-05-09T15:59:44.448Z,991.36
2018-05-09T16:00:44.438Z,991.32
2018-05-09T16:02:37.313Z,991.30
2018-05-09T16:03:37.294Z,991.28
2018-05-09T16:05:30.176Z,991.27
2018-05-09T16:06:30.155Z,991.27
2018-05-09T16:08:23.102Z,991.27
2018-05-09T16:09:23.009Z,991.24
2018-05-09T16:11:15.887Z,991.26
2018-05-09T16:12:15.871Z,991.29
2018-05-09T16:14:08.739Z,991.21
2018-05-09T16:15:08.726Z,991.21
2018-05-09T16:17:01.633Z,991.18
2018-05-09T16:18:01.616Z,991.16
2018-05-09T16:19:54.480Z,991.22
2018-05-09T16:20:54.469Z,991.15
2018-05-09T16:22:47.375Z,991.13
2018-05-09T16:23:47.333Z,991.16
2018-05-09T16:25:40.201Z,991.11
2018-05-09T16:26:40.180Z,991.17
2018-05-09T16:28:33.046Z,991.11
2018-05-09T16:29:33.034Z,991.10
2018-05-09T16:31:25.913Z,991.05
2018-05-09T16:32:25.893Z,991.14
2018-05-09T16:34:18.761Z,991.11
2018-05-09T16:35:18.748Z,991.13
2018-05-09T16:37:11.625Z,991.12
2018-05-09T16:38:11.596Z,991.14
2018-05-09T16:40:04.467Z,991.18
2018-05-09T16:41:04.454Z,991.18
2018-05-09T16:42:57.338Z,991.22
2018-05-09T16:43:57.315Z,991.26
2018-05-09T16:45:50.190Z,991.21
2018-05-09T16:46:50.171Z,991.20
2018-05-09T16:48:43.035Z,991.20
2018-05-09T16:49:43.024Z,991.22
2018-05-09T16:51:35.894Z,991.17
2018-05-09T16:52:35.878Z,991.16
2018-05-09T16:54:28.742Z,991.19
2018-05-09T16:55:28.727Z,991.12
2018-05-09T16:57:21.602Z,991.17
2018-05-09T16:58:21.584Z,991.14
2018-05-09T17:00:14.476Z,991.17
2018-05-09T17:01:14.439Z,991.14
2018-05-09T17:03:07.311Z,991.15
2018-05-09T17:04:07.290Z,991.17
2018-05-09T17:06:00.162Z,991.17
2018-05-09T17:07:00.165Z,991.18
2018-05-09T17:08:53.011Z,991.20
2018-05-09T17:09:52.999Z,991.24
2018-05-09T17:11:45.872Z,991.22
2018-05-09T17:12:45.849Z,991.19
2018-05-09T17:14:38.717Z,991.19
2018-05-09T17:15:38.706Z,991.18
2018-05-09T17:17:31.584Z,991.18
2018-05-09T17:18:31.560Z,991.16
2018-05-09T17:20:24.430Z,991.17
2018-05-09T17:21:24.418Z,991.11
2018-05-09T17:23:17.298Z,991.11
2018-05-09T17:24:17.272Z,991.11
2018-05-09T17:26:10.146Z,991.10
2018-05-09T17:27:10.124Z,991.11
2018-05-09T17:29:02.992Z,991.06
2018-05-09T17:30:02.976Z,991.05
2018-05-09T17:31:55.852Z,991.05
2018-05-09T17:32:55.832Z,991.03
2018-05-09T17:34:48.698Z,991.05
2018-05-09T17:35:48.683Z,991.02
2018-05-09T17:37:41.554Z,991.02
2018-05-09T17:38:41.547Z,991.01
2018-05-09T17:40:34.419Z,990.98
2018-05-09T17:41:34.398Z,991.01
2018-05-09T17:43:27.264Z,990.97
2018-05-09T17:44:27.291Z,990.96
2018-05-09T17:46:20.119Z,990.96
2018-05-09T17:47:20.097Z,990.93
2018-05-09T17:49:12.963Z,990.95
2018-05-09T17:50:12.947Z,990.98
2018-05-09T17:52:05.818Z,990.97
2018-05-09T17:53:05.888Z,990.98
2018-05-09T17:54:58.663Z,990.98
2018-05-09T17:55:58.650Z,990.98
2018-05-09T17:57:51.526Z,990.97